Time;durP1;ratioP1;P1;durP2;ratioP2;P2;SDS_P1;SDS_P2;PMS_P1;PMS_P2;Temp;Humidity;BMP_temperature;BMP_pressure;BME280_temperature;BME280_humidity;BME280_pressure;Samples;Min_cycle;Max_cycle;Signal;HPM_P1;HPM_P2
2023/12/13 00:00:31;;;;;;;1.50;1.30;;;12.10;42.60;;;;;;5054921;28;20625;-56
2023/12/13 00:02:58;;;;;;;2.30;1.50;;;12.10;42.90;;;;;;5054715;28;20173;-56
2023/12/13 00:05:24;;;;;;;1.90;1.50;;;12.10;43.20;;;;;;5054910;28;20288;-57
2023/12/13 00:07:50;;;;;;;2.13;1.47;;;12.10;43.60;;;;;;5054528;28;20220;-58
2023/12/13 00:10:16;;;;;;;1.70;1.58;;;12.10;43.70;;;;;;5054682;28;20407;-52
2023/12/13 00:12:41;;;;;;;1.30;0.70;;;12.00;43.80;;;;;;5054674;28;20173;-51
2023/12/13 00:15:08;;;;;;;2.97;1.87;;;12.00;44.10;;;;;;5054664;28;20169;-57
2023/12/13 00:17:33;;;;;;;6.35;3.05;;;12.00;44.10;;;;;;5054131;28;20201;-59
2023/12/13 00:19:59;;;;;;;1.23;1.07;;;12.00;44.20;;;;;;5054761;28;20181;-55
2023/12/13 00:22:25;;;;;;;3.80;2.37;;;12.00;44.20;;;;;;5053330;28;20531;-57
2023/12/13 00:24:51;;;;;;;3.77;3.40;;;12.00;44.30;;;;;;5054336;28;20224;-53
2023/12/13 00:27:16;;;;;;;1.80;1.30;;;12.00;44.30;;;;;;5054192;28;20523;-55
2023/12/13 00:29:42;;;;;;;6.67;2.17;;;12.00;44.60;;;;;;5054306;28;20201;-54
2023/12/13 00:32:08;;;;;;;1.43;1.33;;;12.00;44.60;;;;;;5054112;28;20404;-51
2023/12/13 00:34:34;;;;;;;2.23;1.93;;;12.00;44.80;;;;;;5054447;28;20251;-52
2023/12/13 00:37:00;;;;;;;1.30;1.20;;;12.00;44.70;;;;;;5054228;28;20173;-54
2023/12/13 00:39:25;;;;;;;2.17;1.52;;;12.00;44.80;;;;;;5054039;28;20209;-53
2023/12/13 00:41:51;;;;;;;2.20;1.53;;;12.00;44.80;;;;;;5054201;28;20184;-49
2023/12/13 00:44:17;;;;;;;3.43;1.40;;;12.00;44.80;;;;;;5053997;28;20173;-54
2023/12/13 00:46:43;;;;;;;3.33;2.13;;;12.00;44.80;;;;;;5053807;28;20184;-55
2023/12/13 00:49:09;;;;;;;1.83;1.43;;;12.00;44.80;;;;;;5053911;28;20432;-53
2023/12/13 00:51:35;;;;;;;1.70;1.10;;;12.10;45.10;;;;;;5053947;28;20196;-55
2023/12/13 00:54:00;;;;;;;1.67;1.10;;;12.00;45.10;;;;;;5054034;28;20408;-58
2023/12/13 00:56:30;;;;;;;5.53;1.43;;;12.10;45.20;;;;;;5053684;28;20165;-52
2023/12/13 00:58:55;;;;;;;3.25;1.92;;;12.10;44.80;;;;;;5053646;28;20276;-57
2023/12/13 01:01:21;;;;;;;1.20;1.10;;;12.10;45.00;;;;;;5053588;28;20277;-51
2023/12/13 01:03:47;;;;;;;3.10;1.80;;;12.10;45.00;;;;;;5053750;28;20215;-57
2023/12/13 01:06:13;;;;;;;2.00;1.13;;;12.10;45.00;;;;;;5053368;28;20197;-58
2023/12/13 01:08:39;;;;;;;2.30;0.80;;;12.20;45.00;;;;;;5053608;28;20196;-52
2023/12/13 01:11:10;;;;;;;4.30;2.33;;;12.20;44.70;;;;;;5053623;28;20165;-57
2023/12/13 01:13:37;;;;;;;3.90;1.92;;;12.30;44.80;;;;;;5053561;28;20172;-56
2023/12/13 01:16:03;;;;;;;2.70;1.15;;;12.20;44.80;;;;;;5053353;28;20204;-53
2023/12/13 01:18:29;;;;;;;4.50;1.83;;;12.20;44.70;;;;;;5053365;28;20311;-54
2023/12/13 01:20:55;;;;;;;6.00;3.13;;;12.20;44.80;;;;;;5053479;28;20264;-55
2023/12/13 01:23:21;;;;;;;2.97;1.60;;;12.20;44.80;;;;;;5053270;28;20647;-52
2023/12/13 01:25:46;;;;;;;2.65;1.88;;;12.30;44.90;;;;;;5053291;28;20205;-54
2023/12/13 01:28:12;;;;;;;3.70;2.00;;;12.20;44.80;;;;;;5053002;28;20740;-56
2023/12/13 01:30:38;;;;;;;1.97;1.77;;;12.30;44.90;;;;;;5053017;28;20720;-51
2023/12/13 01:33:03;;;;;;;2.00;1.80;;;12.30;44.80;;;;;;5053009;28;20567;-53
2023/12/13 01:35:29;;;;;;;10.40;2.93;;;12.30;44.80;;;;;;5052710;28;20173;-55
2023/12/13 01:37:55;;;;;;;2.30;0.93;;;12.30;44.70;;;;;;5052656;28;20219;-57
2023/12/13 01:40:21;;;;;;;3.80;2.80;;;12.30;45.00;;;;;;5053023;28;20268;-52
2023/12/13 01:42:46;;;;;;;4.00;2.20;;;12.30;44.90;;;;;;5053062;28;20166;-54
2023/12/13 01:45:12;;;;;;;1.67;1.10;;;12.30;44.90;;;;;;5052757;28;20288;-52
2023/12/13 01:47:38;;;;;;;1.73;1.13;;;12.30;44.90;;;;;;5052606;28;20191;-52
2023/12/13 01:50:05;;;;;;;10.48;2.80;;;12.30;45.00;;;;;;5052966;28;20185;-53
2023/12/13 01:52:31;;;;;;;3.05;2.67;;;12.30;45.20;;;;;;5052745;28;20174;-56
2023/12/13 01:54:57;;;;;;;2.60;2.17;;;12.30;45.10;;;;;;5052788;28;20177;-51
2023/12/13 01:57:23;;;;;;;2.85;2.40;;;12.30;45.10;;;;;;5052498;28;20181;-58
2023/12/13 01:59:49;;;;;;;3.70;2.45;;;12.30;44.60;;;;;;5052560;28;20322;-52
2023/12/13 02:02:15;;;;;;;3.03;1.70;;;12.30;45.00;;;;;;5052673;28;20177;-51
2023/12/13 02:04:42;;;;;;;3.50;1.80;;;12.30;45.00;;;;;;5052465;28;20712;-57
2023/12/13 02:07:08;;;;;;;3.03;1.85;;;12.30;44.90;;;;;;5052375;28;20169;-58
2023/12/13 02:09:34;;;;;;;5.07;3.50;;;12.40;45.00;;;;;;5052581;28;20673;-52
2023/12/13 02:12:00;;;;;;;2.30;1.10;;;12.30;45.10;;;;;;5052449;28;20165;-51
2023/12/13 02:14:26;;;;;;;1.80;1.42;;;12.30;45.20;;;;;;5052323;28;20269;-54
2023/12/13 02:16:53;;;;;;;9.43;3.45;;;12.30;45.20;;;;;;5052333;28;20655;-52
2023/12/13 02:19:19;;;;;;;2.05;1.50;;;12.20;45.10;;;;;;5052231;28;20201;-56
2023/12/13 02:21:45;;;;;;;7.47;2.42;;;12.20;45.10;;;;;;5052407;28;20223;-53
2023/12/13 02:24:11;;;;;;;2.70;2.30;;;12.20;45.00;;;;;;5052242;28;20169;-55
2023/12/13 02:26:41;;;;;;;1.85;1.45;;;12.20;45.20;;;;;;5051971;28;20173;-56
2023/12/13 02:29:07;;;;;;;5.28;1.67;;;12.20;45.40;;;;;;5052009;28;20200;-53
2023/12/13 02:31:35;;;;;;;1.92;1.23;;;12.10;45.60;;;;;;5052144;28;20308;-51
2023/12/13 02:34:00;;;;;;;6.22;2.80;;;12.10;45.80;;;;;;5052265;28;20193;-57
2023/12/13 02:36:26;;;;;;;2.90;2.63;;;12.10;45.90;;;;;;5051908;28;20204;-51
2023/12/13 02:38:52;;;;;;;1.90;1.50;;;12.10;45.70;;;;;;5051909;28;20497;-54
2023/12/13 02:41:18;;;;;;;5.87;3.00;;;12.10;45.90;;;;;;5051867;28;20532;-54
2023/12/13 02:43:44;;;;;;;2.05;1.67;;;12.10;45.80;;;;;;5051879;28;20639;-52
2023/12/13 02:46:10;;;;;;;1.87;1.77;;;12.20;45.80;;;;;;5051188;28;20216;-51
2023/12/13 02:48:36;;;;;;;4.20;1.60;;;12.20;45.90;;;;;;5051810;28;20193;-57
2023/12/13 02:51:03;;;;;;;3.63;2.33;;;12.20;45.90;;;;;;5051859;28;20318;-51
2023/12/13 02:53:28;;;;;;;4.10;2.55;;;12.20;45.80;;;;;;5051902;28;20181;-53
2023/12/13 02:55:54;;;;;;;2.47;2.27;;;12.30;46.10;;;;;;5051784;28;20588;-55
2023/12/13 02:58:20;;;;;;;11.30;4.20;;;12.20;45.90;;;;;;5051586;28;20423;-53
2023/12/13 03:00:46;;;;;;;5.77;3.03;;;12.20;46.30;;;;;;5051922;28;20716;-51
2023/12/13 03:03:11;;;;;;;3.43;1.80;;;12.10;46.70;;;;;;5051981;28;20666;-55
2023/12/13 03:05:37;;;;;;;7.13;3.63;;;12.00;47.30;;;;;;5051786;28;20459;-54
2023/12/13 03:08:03;;;;;;;13.73;2.33;;;12.00;47.20;;;;;;5051563;28;20842;-53
2023/12/13 03:10:29;;;;;;;3.03;2.80;;;12.00;47.40;;;;;;5051554;28;20237;-55
2023/12/13 03:12:55;;;;;;;3.63;2.65;;;12.00;47.60;;;;;;5051673;28;20196;-54
2023/12/13 03:15:21;;;;;;;3.77;2.57;;;12.00;47.70;;;;;;5051659;28;20252;-51
2023/12/13 03:17:46;;;;;;;1.30;0.90;;;11.90;48.20;;;;;;5051649;28;20460;-56
2023/12/13 03:20:12;;;;;;;2.63;1.60;;;11.90;48.20;;;;;;5051731;28;20200;-52
2023/12/13 03:22:38;;;;;;;6.40;2.40;;;11.80;48.30;;;;;;5051695;28;20235;-53
2023/12/13 03:25:05;;;;;;;3.43;3.07;;;11.80;48.40;;;;;;5051428;28;20451;-54
2023/12/13 03:27:31;;;;;;;5.80;2.83;;;11.80;48.70;;;;;;5051531;28;20420;-52
2023/12/13 03:29:56;;;;;;;8.07;3.13;;;11.80;48.40;;;;;;5051502;28;20197;-50
2023/12/13 03:32:22;;;;;;;1.50;1.40;;;11.80;48.80;;;;;;5051665;28;20197;-54
2023/12/13 03:34:48;;;;;;;11.93;2.27;;;11.80;49.00;;;;;;5051601;28;20177;-52
2023/12/13 03:37:15;;;;;;;6.13;2.13;;;11.70;49.40;;;;;;5051526;28;20323;-51
2023/12/13 03:39:41;;;;;;;19.88;2.03;;;11.70;49.40;;;;;;5051420;28;20173;-54
2023/12/13 03:42:07;;;;;;;1.80;1.13;;;11.70;49.50;;;;;;5051425;28;20173;-54
2023/12/13 03:44:32;;;;;;;2.97;1.83;;;11.70;49.40;;;;;;5051516;28;20451;-51
2023/12/13 03:47:13;;;;;;;3.43;1.60;;;11.70;49.60;;;;;;5051599;28;20251;-50
2023/12/13 03:49:39;;;;;;;2.75;2.20;;;11.70;49.50;;;;;;5051419;28;20248;-52
2023/12/13 03:52:07;;;;;;;5.03;1.63;;;11.70;49.70;;;;;;5051226;28;20250;-57
2023/12/13 03:54:33;;;;;;;3.45;1.90;;;11.70;49.60;;;;;;5051532;28;20411;-57
2023/12/13 03:56:59;;;;;;;2.07;1.23;;;11.70;49.50;;;;;;5051660;28;20527;-52
2023/12/13 03:59:25;;;;;;;4.80;2.70;;;11.70;49.50;;;;;;5054803;28;20513;-55
2023/12/13 04:01:51;;;;;;;1.60;0.97;;;11.80;49.50;;;;;;5054907;28;20403;-53
2023/12/13 04:04:16;;;;;;;4.50;2.40;;;11.80;49.30;;;;;;5054780;28;20905;-51
2023/12/13 04:06:42;;;;;;;1.47;0.90;;;11.80;49.30;;;;;;5054515;28;20415;-55
2023/12/13 04:09:08;;;;;;;2.17;1.80;;;11.80;49.20;;;;;;5054600;28;20548;-56
2023/12/13 04:11:34;;;;;;;1.70;1.60;;;11.80;49.20;;;;;;5054608;28;20181;-51
2023/12/13 04:14:00;;;;;;;2.80;1.33;;;11.80;49.30;;;;;;5054523;28;20173;-51
2023/12/13 04:16:26;;;;;;;9.73;1.70;;;11.80;49.20;;;;;;5054468;28;20408;-53
2023/12/13 04:18:52;;;;;;;2.10;1.90;;;11.80;49.60;;;;;;5054451;28;20937;-55
2023/12/13 04:21:18;;;;;;;2.10;1.90;;;11.80;49.40;;;;;;5063266;28;20206;-52
2023/12/13 04:23:44;;;;;;;3.10;2.27;;;11.80;49.30;;;;;;5061709;28;20454;-54
2023/12/13 04:26:10;;;;;;;5.23;1.73;;;11.80;49.40;;;;;;5053238;28;20460;-57
2023/12/13 04:28:35;;;;;;;7.90;2.40;;;11.80;49.50;;;;;;5054351;28;20951;-50
2023/12/13 04:31:02;;;;;;;1.47;1.07;;;11.80;49.80;;;;;;5054372;28;20417;-52
2023/12/13 04:33:28;;;;;;;1.95;1.20;;;11.70;49.80;;;;;;5054243;28;20408;-55
2023/12/13 04:35:58;;;;;;;2.40;2.20;;;11.70;49.80;;;;;;5054080;28;20658;-52
2023/12/13 04:38:24;;;;;;;4.53;1.35;;;11.70;49.80;;;;;;5053955;28;20451;-54
2023/12/13 04:40:50;;;;;;;2.53;2.08;;;11.70;49.70;;;;;;5054155;28;20185;-57
2023/12/13 04:43:16;;;;;;;2.77;1.87;;;11.70;49.60;;;;;;5054020;28;20176;-55
2023/12/13 04:45:42;;;;;;;3.43;1.23;;;11.80;49.70;;;;;;5053928;28;20292;-51
2023/12/13 04:48:08;;;;;;;1.47;0.77;;;11.80;49.50;;;;;;5053692;28;20428;-56
2023/12/13 04:50:33;;;;;;;2.40;2.10;;;11.80;49.60;;;;;;5053841;28;20219;-57
2023/12/13 04:53:01;;;;;;;1.63;1.53;;;11.80;49.50;;;;;;5053867;28;20582;-52
2023/12/13 04:55:27;;;;;;;7.45;2.17;;;11.80;49.50;;;;;;5054014;28;20970;-55
2023/12/13 04:57:54;;;;;;;1.17;0.70;;;11.80;49.50;;;;;;5053800;28;20237;-55
2023/12/13 05:00:19;;;;;;;1.73;1.08;;;11.80;49.50;;;;;;5053700;28;20459;-54
2023/12/13 05:02:46;;;;;;;1.27;0.97;;;11.80;49.30;;;;;;5053730;28;20201;-52
2023/12/13 05:05:12;;;;;;;1.42;1.05;;;11.80;49.40;;;;;;5053435;28;20501;-53
2023/12/13 05:07:37;;;;;;;0.90;0.50;;;11.80;49.60;;;;;;5053365;28;20189;-56
2023/12/13 05:10:04;;;;;;;2.00;1.43;;;11.70;49.50;;;;;;5052820;28;20416;-53
2023/12/13 05:12:30;;;;;;;1.42;0.98;;;11.70;49.70;;;;;;5053643;28;20169;-50
2023/12/13 05:14:55;;;;;;;1.43;1.33;;;11.70;49.80;;;;;;5053566;28;20588;-55
2023/12/13 05:17:21;;;;;;;1.30;1.20;;;11.70;49.70;;;;;;5053231;28;20439;-56
2023/12/13 05:19:47;;;;;;;1.73;1.63;;;11.70;49.70;;;;;;5053255;28;20639;-51
2023/12/13 05:22:13;;;;;;;1.90;1.23;;;11.70;49.70;;;;;;5053518;28;20180;-52
2023/12/13 05:24:39;;;;;;;2.70;1.80;;;11.80;49.70;;;;;;5053437;28;20976;-57
2023/12/13 05:27:05;;;;;;;2.20;2.00;;;11.80;49.70;;;;;;5053165;28;20412;-51
2023/12/13 05:29:31;;;;;;;1.90;1.30;;;11.80;49.50;;;;;;5053358;28;20419;-53
2023/12/13 05:31:56;;;;;;;4.43;2.20;;;11.90;49.60;;;;;;5053222;28;20178;-57
2023/12/13 05:34:22;;;;;;;1.90;1.70;;;12.00;49.50;;;;;;5053109;28;20404;-51
2023/12/13 05:36:48;;;;;;;3.20;1.30;;;12.00;49.30;;;;;;5053004;28;20432;-57
2023/12/13 05:39:15;;;;;;;2.80;1.97;;;12.00;49.30;;;;;;5052908;28;20500;-53
2023/12/13 05:41:40;;;;;;;1.70;1.58;;;12.00;49.50;;;;;;5052922;28;20495;-50
2023/12/13 05:44:06;;;;;;;2.73;2.10;;;12.10;49.30;;;;;;5053099;28;20260;-56
2023/12/13 05:46:34;;;;;;;1.70;1.57;;;12.10;49.30;;;;;;5052702;28;20479;-51
2023/12/13 05:49:02;;;;;;;1.88;1.70;;;12.10;49.30;;;;;;5052741;28;21077;-54
2023/12/13 05:51:28;;;;;;;3.38;1.75;;;12.10;49.30;;;;;;5052992;28;20219;-52
2023/12/13 05:53:54;;;;;;;2.20;1.43;;;12.10;49.30;;;;;;5052805;28;20562;-51
2023/12/13 05:56:20;;;;;;;3.57;2.17;;;12.10;49.30;;;;;;5052603;28;20670;-56
2023/12/13 05:58:46;;;;;;;1.37;0.90;;;12.10;49.20;;;;;;5052619;28;20826;-58
2023/12/13 06:01:12;;;;;;;4.50;2.70;;;12.10;49.20;;;;;;5051255;28;20659;-54
2023/12/13 06:03:40;;;;;;;1.17;0.83;;;12.10;49.30;;;;;;5052513;28;20169;-56
2023/12/13 06:06:07;;;;;;;1.33;1.17;;;12.10;49.20;;;;;;5052650;28;20813;-51
2023/12/13 06:08:33;;;;;;;2.40;2.17;;;12.10;49.50;;;;;;5052267;28;20228;-57
2023/12/13 06:10:58;;;;;;;1.20;0.90;;;12.00;49.80;;;;;;5052529;28;20196;-52
2023/12/13 06:13:25;;;;;;;3.83;1.87;;;12.00;49.80;;;;;;5052685;28;20412;-53
2023/12/13 06:15:50;;;;;;;3.90;3.40;;;12.00;49.80;;;;;;5052235;28;20411;-55
2023/12/13 06:18:16;;;;;;;3.10;2.10;;;12.00;49.80;;;;;;5052110;28;20189;-54
2023/12/13 06:20:42;;;;;;;3.28;1.63;;;12.00;49.70;;;;;;5051321;28;20940;-51
2023/12/13 06:23:08;;;;;;;2.20;1.50;;;12.00;49.80;;;;;;5052386;28;20185;-56
2023/12/13 06:25:34;;;;;;;1.83;1.53;;;12.00;49.60;;;;;;5052124;28;20817;-56
2023/12/13 06:28:00;;;;;;;1.63;1.10;;;12.00;49.70;;;;;;5051933;28;20438;-52
2023/12/13 06:30:26;;;;;;;4.93;2.43;;;12.10;49.60;;;;;;5052068;28;20415;-54
2023/12/13 06:32:52;;;;;;;5.03;3.03;;;12.10;49.50;;;;;;5052111;28;20826;-56
2023/12/13 06:35:18;;;;;;;1.70;1.30;;;12.20;49.50;;;;;;5052257;28;20502;-54
2023/12/13 06:37:43;;;;;;;2.37;1.63;;;12.10;49.30;;;;;;5051631;28;20860;-53
2023/12/13 06:40:10;;;;;;;3.50;1.63;;;12.10;49.30;;;;;;5051916;28;20438;-57
2023/12/13 06:42:36;;;;;;;7.57;2.50;;;12.20;49.30;;;;;;5051994;28;20412;-52
2023/12/13 06:45:03;;;;;;;6.20;4.20;;;12.20;49.50;;;;;;5051773;28;20209;-58
2023/12/13 06:47:29;;;;;;;2.08;1.50;;;12.10;49.40;;;;;;5051672;28;20435;-55
2023/12/13 06:49:55;;;;;;;13.40;2.83;;;12.20;49.50;;;;;;5051840;28;20173;-52
2023/12/13 06:52:21;;;;;;;1.50;0.83;;;12.20;49.60;;;;;;5051924;28;20176;-54
2023/12/13 06:54:47;;;;;;;3.83;2.40;;;12.20;49.50;;;;;;5051855;28;20408;-54
2023/12/13 06:57:13;;;;;;;1.80;1.70;;;12.10;49.50;;;;;;5051559;28;20404;-52
2023/12/13 06:59:39;;;;;;;1.70;1.30;;;12.10;49.60;;;;;;5051752;28;20184;-54
2023/12/13 07:02:06;;;;;;;2.33;1.65;;;12.10;49.60;;;;;;5051819;28;20791;-57
2023/12/13 07:04:32;;;;;;;1.58;1.27;;;12.10;49.60;;;;;;5051905;28;20205;-53
2023/12/13 07:07:01;;;;;;;4.97;3.10;;;12.10;49.70;;;;;;5051524;28;20197;-58
2023/12/13 07:09:27;;;;;;;2.85;2.20;;;12.10;49.70;;;;;;5051666;28;20415;-52
2023/12/13 07:11:53;;;;;;;1.75;1.00;;;12.10;49.60;;;;;;5051759;28;20268;-55
2023/12/13 07:14:19;;;;;;;1.50;1.10;;;12.20;49.50;;;;;;5051547;28;20675;-51
2023/12/13 07:16:45;;;;;;;1.70;1.17;;;12.10;49.40;;;;;;5051451;28;20404;-53
2023/12/13 07:19:11;;;;;;;1.60;0.82;;;12.10;49.50;;;;;;5051595;28;20431;-57
2023/12/13 07:21:37;;;;;;;6.82;1.20;;;12.20;49.50;;;;;;5051734;28;20698;-51
2023/12/13 07:24:04;;;;;;;1.83;1.17;;;12.20;49.40;;;;;;5051635;28;20212;-58
2023/12/13 07:26:30;;;;;;;1.75;1.02;;;12.20;49.20;;;;;;5051400;28;20462;-51
2023/12/13 07:28:56;;;;;;;3.92;1.70;;;12.20;49.20;;;;;;5051418;28;20186;-52
2023/12/13 07:31:23;;;;;;;1.87;1.10;;;12.20;49.20;;;;;;5051501;28;20173;-57
2023/12/13 07:33:49;;;;;;;11.32;3.65;;;12.20;49.10;;;;;;5055089;28;20503;-50
2023/12/13 07:36:15;;;;;;;12.03;2.00;;;12.20;49.40;;;;;;5055256;28;20299;-57
2023/12/13 07:38:41;;;;;;;4.50;2.35;;;12.20;49.20;;;;;;5055052;28;20956;-51
2023/12/13 07:41:08;;;;;;;2.47;1.02;;;12.20;49.40;;;;;;5055312;28;20192;-50
2023/12/13 07:43:34;;;;;;;2.00;1.35;;;12.30;49.70;;;;;;5055285;28;20165;-59
2023/12/13 07:45:59;;;;;;;2.00;1.67;;;12.20;49.30;;;;;;5055135;28;20220;-53
2023/12/13 07:48:25;;;;;;;1.93;1.17;;;12.20;49.30;;;;;;5053759;28;20439;-59
2023/12/13 07:50:53;;;;;;;5.80;1.33;;;12.30;50.10;;;;;;5055084;28;20434;-53
2023/12/13 07:53:19;;;;;;;2.70;2.50;;;12.30;49.30;;;;;;5055092;28;20439;-50
2023/12/13 07:55:45;;;;;;;1.52;1.42;;;12.30;49.30;;;;;;5055030;28;20191;-59
2023/12/13 07:58:11;;;;;;;1.30;1.20;;;12.30;49.20;;;;;;5054746;28;20193;-58
2023/12/13 08:00:37;;;;;;;3.63;2.67;;;12.40;49.20;;;;;;5055000;28;20252;-51
2023/12/13 08:03:04;;;;;;;2.23;1.90;;;12.40;49.30;;;;;;5054843;28;20414;-54
2023/12/13 08:05:31;;;;;;;4.15;1.50;;;12.40;49.40;;;;;;5054676;28;20475;-55
2023/12/13 08:07:57;;;;;;;2.30;1.33;;;12.30;49.50;;;;;;5054501;28;20558;-49
2023/12/13 08:10:23;;;;;;;3.93;3.17;;;12.30;49.60;;;;;;5054666;28;20430;-58
2023/12/13 08:12:49;;;;;;;2.70;2.20;;;12.30;49.70;;;;;;5053554;28;20483;-58
2023/12/13 08:15:15;;;;;;;3.17;1.90;;;12.30;50.20;;;;;;5054676;28;20411;-52
2023/12/13 08:17:41;;;;;;;1.90;1.40;;;12.20;50.10;;;;;;5054380;28;20465;-59
2023/12/13 08:20:07;;;;;;;1.37;1.27;;;12.20;50.00;;;;;;5054714;28;20416;-52
2023/12/13 08:22:33;;;;;;;1.77;1.33;;;12.20;50.00;;;;;;5054378;28;20415;-51
2023/12/13 08:24:59;;;;;;;2.45;1.67;;;12.20;50.10;;;;;;5054297;28;20205;-57
2023/12/13 08:27:25;;;;;;;2.08;1.65;;;12.20;50.10;;;;;;5054133;28;20173;-54
2023/12/13 08:29:51;;;;;;;1.40;0.90;;;12.20;50.00;;;;;;5054559;28;20200;-51
2023/12/13 08:32:17;;;;;;;1.73;1.30;;;12.20;50.00;;;;;;5054252;28;20917;-57
2023/12/13 08:34:44;;;;;;;2.60;1.30;;;12.30;50.00;;;;;;5054357;28;20204;-53
2023/12/13 08:37:10;;;;;;;1.80;1.30;;;12.30;50.00;;;;;;5053791;28;20419;-57
2023/12/13 08:39:36;;;;;;;2.65;1.35;;;12.30;50.10;;;;;;5054086;28;20185;-52
2023/12/13 08:42:03;;;;;;;5.33;2.10;;;12.30;50.20;;;;;;5054084;28;20204;-56
2023/12/13 08:44:29;;;;;;;4.43;1.95;;;12.30;50.20;;;;;;5052957;28;20498;-57
2023/12/13 08:46:56;;;;;;;1.60;1.02;;;12.30;50.20;;;;;;5054033;28;20173;-52
2023/12/13 08:49:21;;;;;;;1.60;1.15;;;12.40;50.10;;;;;;5053967;28;20221;-52
2023/12/13 08:51:47;;;;;;;4.03;1.87;;;12.40;50.30;;;;;;5053933;28;20259;-58
2023/12/13 08:54:13;;;;;;;1.27;0.87;;;12.40;50.20;;;;;;5053838;28;20526;-51
2023/12/13 08:56:39;;;;;;;2.50;2.10;;;12.40;50.20;;;;;;5053787;28;20783;-56
2023/12/13 08:59:05;;;;;;;4.33;3.70;;;12.40;50.20;;;;;;5053820;28;20522;-53
2023/12/13 09:01:31;;;;;;;2.70;1.73;;;12.50;50.30;;;;;;5053943;28;20474;-54
2023/12/13 09:03:57;;;;;;;3.85;1.27;;;12.50;50.20;;;;;;5053696;28;20415;-58
2023/12/13 09:06:23;;;;;;;2.20;1.87;;;12.60;50.20;;;;;;5053479;28;20205;-51
2023/12/13 09:08:49;;;;;;;3.10;2.13;;;12.60;50.00;;;;;;5053581;28;20506;-58
2023/12/13 09:11:15;;;;;;;4.70;3.40;;;12.60;49.90;;;;;;5053575;28;20430;-52
2023/12/13 09:13:40;;;;;;;2.10;1.63;;;12.70;50.00;;;;;;5053620;28;20411;-51
2023/12/13 09:16:07;;;;;;;3.17;2.43;;;12.70;50.00;;;;;;5053743;28;20411;-53
2023/12/13 09:18:32;;;;;;;3.05;2.28;;;12.80;50.10;;;;;;5053239;28;20415;-54
2023/12/13 09:20:58;;;;;;;2.73;1.53;;;12.80;49.90;;;;;;5053311;28;20605;-51
2023/12/13 09:23:26;;;;;;;1.23;1.13;;;12.90;50.00;;;;;;5053325;28;20494;-54
2023/12/13 09:25:52;;;;;;;1.83;1.60;;;12.90;50.00;;;;;;5053287;28;20450;-55
2023/12/13 09:28:19;;;;;;;4.13;3.72;;;13.00;50.00;;;;;;5053202;28;20559;-52
2023/12/13 09:30:45;;;;;;;5.68;4.05;;;13.00;50.00;;;;;;5053295;28;20165;-52
2023/12/13 09:33:12;;;;;;;2.35;2.13;;;13.10;50.00;;;;;;5052045;28;20172;-59
2023/12/13 09:35:38;;;;;;;2.55;2.35;;;13.10;50.10;;;;;;5053090;28;20651;-52
2023/12/13 09:38:04;;;;;;;2.55;1.67;;;13.10;50.00;;;;;;5052700;28;20625;-57
2023/12/13 09:40:31;;;;;;;2.50;2.17;;;13.10;50.00;;;;;;5053078;28;20279;-52
2023/12/13 09:42:57;;;;;;;1.95;1.52;;;13.10;50.10;;;;;;5052936;28;20227;-53
2023/12/13 09:45:23;;;;;;;1.70;1.60;;;13.20;50.30;;;;;;5052816;28;20679;-56
2023/12/13 09:47:50;;;;;;;1.38;0.95;;;13.20;50.10;;;;;;5052703;28;20613;-50
2023/12/13 09:50:20;;;;;;;1.30;1.13;;;13.30;50.20;;;;;;5052782;28;20181;-50
2023/12/13 09:52:47;;;;;;;8.68;2.00;;;13.30;50.10;;;;;;5052750;28;20184;-57
2023/12/13 09:55:15;;;;;;;2.75;1.77;;;13.30;50.20;;;;;;5052526;28;20704;-58
2023/12/13 09:57:41;;;;;;;2.50;2.30;;;13.40;50.30;;;;;;5052479;28;20786;-51
2023/12/13 10:00:07;;;;;;;1.40;1.10;;;13.40;50.30;;;;;;5052688;28;20264;-57
2023/12/13 10:02:33;;;;;;;2.40;2.20;;;13.40;50.20;;;;;;5052664;28;20404;-58
2023/12/13 10:04:59;;;;;;;2.77;1.90;;;13.40;50.10;;;;;;5052337;28;20197;-53
2023/12/13 10:07:27;;;;;;;2.55;2.35;;;13.50;50.40;;;;;;5052332;28;20410;-57
2023/12/13 10:09:55;;;;;;;2.03;1.88;;;13.50;50.20;;;;;;5052501;28;20189;-51
2023/12/13 10:12:22;;;;;;;3.50;2.35;;;13.50;50.10;;;;;;5052589;28;20173;-53
2023/12/13 10:14:48;;;;;;;1.55;0.85;;;13.60;50.00;;;;;;5052409;28;20647;-57
2023/12/13 10:17:14;;;;;;;2.20;2.00;;;13.60;50.00;;;;;;5052078;28;20272;-52
2023/12/13 10:19:40;;;;;;;2.53;2.33;;;13.60;50.00;;;;;;5052315;28;20411;-52
2023/12/13 10:22:06;;;;;;;1.42;1.27;;;13.60;50.00;;;;;;5052232;28;20407;-54
2023/12/13 10:24:33;;;;;;;10.25;5.88;;;13.70;50.00;;;;;;5052391;28;20173;-51
2023/12/13 10:26:59;;;;;;;2.15;1.95;;;13.70;50.00;;;;;;5052174;28;20308;-52
2023/12/13 10:29:27;;;;;;;3.85;1.83;;;13.70;50.10;;;;;;5052182;28;20193;-59
2023/12/13 10:31:53;;;;;;;3.45;2.30;;;13.70;50.10;;;;;;5052092;28;20263;-54
2023/12/13 10:34:19;;;;;;;4.90;2.87;;;13.80;50.10;;;;;;5051996;28;20252;-57
2023/12/13 10:36:47;;;;;;;1.50;1.17;;;13.80;50.00;;;;;;5051978;28;20407;-58
2023/12/13 10:39:15;;;;;;;4.35;2.33;;;13.80;50.00;;;;;;5051988;28;20221;-52
2023/12/13 10:41:44;;;;;;;2.30;1.25;;;14.00;50.20;;;;;;5051976;28;20662;-52
2023/12/13 10:44:15;;;;;;;3.55;1.60;;;14.00;50.20;;;;;;5052024;28;20179;-58
2023/12/13 10:46:46;;;;;;;4.55;3.15;;;14.00;49.90;;;;;;5051645;28;20205;-54
2023/12/13 10:49:18;;;;;;;5.95;3.22;;;14.00;49.80;;;;;;5051795;28;20197;-51
2023/12/13 10:51:47;;;;;;;1.38;1.00;;;14.00;49.90;;;;;;5051964;28;20177;-54
2023/12/13 10:54:13;;;;;;;1.90;1.40;;;14.00;50.10;;;;;;5051829;28;20639;-58
2023/12/13 10:56:41;;;;;;;3.70;2.10;;;14.00;50.20;;;;;;5051690;28;20179;-52
2023/12/13 10:59:12;;;;;;;4.15;2.10;;;13.90;50.10;;;;;;5051698;28;20201;-51
2023/12/13 11:01:41;;;;;;;3.92;3.20;;;14.00;50.00;;;;;;5051828;28;20662;-57
2023/12/13 11:04:10;;;;;;;1.65;1.40;;;14.00;50.00;;;;;;5051936;28;20185;-53
2023/12/13 11:06:39;;;;;;;6.38;3.75;;;14.00;50.00;;;;;;5051714;28;20247;-59
2023/12/13 11:09:17;;;;;;;1.63;1.35;;;14.00;50.10;;;;;;5055904;28;20184;-56
2023/12/13 11:11:43;;;;;;;1.90;1.77;;;14.10;50.10;;;;;;5055775;28;20661;-52
2023/12/13 11:14:11;;;;;;;5.93;2.47;;;14.10;50.10;;;;;;5055854;28;20170;-58
2023/12/13 11:16:48;;;;;;;2.80;1.85;;;14.10;49.90;;;;;;5055784;28;20188;-59
2023/12/13 11:19:19;;;;;;;1.90;1.70;;;14.20;50.10;;;;;;5055786;28;20224;-51
2023/12/13 11:21:50;;;;;;;4.25;2.25;;;14.20;50.20;;;;;;5055733;28;20169;-58
2023/12/13 11:24:25;;;;;;;2.28;1.50;;;14.30;50.30;;;;;;5055638;28;20199;-58
2023/12/13 11:26:53;;;;;;;3.85;2.05;;;14.40;50.20;;;;;;5055385;28;20212;-53
2023/12/13 11:29:27;;;;;;;3.20;1.50;;;14.50;50.20;;;;;;5055640;28;20217;-58
2023/12/13 11:31:56;;;;;;;3.65;2.05;;;14.60;50.00;;;;;;5055481;28;20178;-53
2023/12/13 11:34:35;;;;;;;1.90;1.70;;;14.60;49.90;;;;;;5055416;28;20176;-54
2023/12/13 11:37:03;;;;;;;6.15;3.05;;;14.70;49.90;;;;;;5055237;28;20531;-52
2023/12/13 11:39:30;;;;;;;2.65;2.03;;;14.70;49.80;;;;;;5055527;28;20212;-58
2023/12/13 11:41:58;;;;;;;2.08;1.20;;;14.70;49.70;;;;;;5055288;28;20714;-54
2023/12/13 11:44:31;;;;;;;2.15;1.60;;;14.70;49.70;;;;;;5055244;28;20181;-53
2023/12/13 11:47:00;;;;;;;2.03;1.42;;;14.70;49.80;;;;;;5055010;28;20663;-58
2023/12/13 11:49:26;;;;;;;4.28;1.70;;;14.60;49.70;;;;;;5055070;28;20217;-52
2023/12/13 11:52:00;;;;;;;1.80;1.02;;;14.60;49.80;;;;;;5055041;28;20639;-59
2023/12/13 11:54:26;;;;;;;1.83;1.38;;;14.60;49.30;;;;;;5055255;28;20252;-54
2023/12/13 11:56:52;;;;;;;3.38;2.28;;;14.60;49.60;;;;;;5054802;28;20234;-53
2023/12/13 11:59:21;;;;;;;5.27;1.37;;;14.60;49.70;;;;;;5055012;28;20189;-53
2023/12/13 12:01:47;;;;;;;1.92;1.50;;;14.60;49.70;;;;;;5054730;28;20926;-58
2023/12/13 12:04:15;;;;;;;2.50;1.88;;;14.70;49.90;;;;;;5055015;28;20235;-51
2023/12/13 12:06:49;;;;;;;4.80;2.03;;;14.80;49.80;;;;;;5054634;28;20201;-52
2023/12/13 12:09:16;;;;;;;2.72;1.60;;;14.80;49.70;;;;;;5054770;28;20189;-57
2023/12/13 12:11:42;;;;;;;1.73;1.42;;;14.90;49.70;;;;;;5054655;28;20176;-52
2023/12/13 12:14:09;;;;;;;1.00;0.63;;;14.90;49.40;;;;;;5054636;28;20581;-52
2023/12/13 12:16:38;;;;;;;0.90;0.40;;;15.00;49.00;;;;;;5054526;28;20246;-56
2023/12/13 12:19:05;;;;;;;1.30;1.08;;;15.00;48.90;;;;;;5054330;28;20742;-56
2023/12/13 12:21:33;;;;;;;1.98;1.77;;;14.90;48.70;;;;;;5054532;28;20188;-59
2023/12/13 12:23:59;;;;;;;1.55;1.13;;;15.00;48.80;;;;;;5054528;28;20250;-52
2023/12/13 12:26:25;;;;;;;1.23;0.98;;;15.40;48.80;;;;;;5054201;28;20197;-54
2023/12/13 12:28:51;;;;;;;1.10;0.67;;;15.50;48.60;;;;;;5054270;28;20196;-60
2023/12/13 12:31:18;;;;;;;1.07;0.63;;;15.50;48.10;;;;;;5054585;28;20418;-59
2023/12/13 12:33:56;;;;;;;1.17;0.85;;;15.70;48.00;;;;;;5054345;28;20722;-51
2023/12/13 12:36:22;;;;;;;1.30;0.82;;;15.70;47.30;;;;;;5054212;28;20177;-58
2023/12/13 12:38:48;;;;;;;1.05;0.60;;;16.50;46.40;;;;;;5054126;28;20216;-52
2023/12/13 12:41:15;;;;;;;2.60;1.10;;;16.20;45.10;;;;;;5054085;28;20181;-52